createdAt,value
2023-03-06T05:03:18.213Z,-2.21
2023-03-06T05:05:44.772Z,-1.98
2023-03-06T05:08:16.399Z,-2.00
2023-03-06T05:10:44.502Z,-1.89
2023-03-06T05:13:11.419Z,-2.00
2023-03-06T05:15:41.429Z,-1.90
2023-03-06T05:18:08.153Z,-1.89
2023-03-06T05:20:44.798Z,-2.07
2023-03-06T05:23:15.650Z,-2.26
2023-03-06T05:25:44.420Z,-2.24
2023-03-06T05:28:10.919Z,-2.24
2023-03-06T05:30:37.514Z,-2.05
2023-03-06T05:33:04.185Z,-2.16
2023-03-06T05:35:30.839Z,-2.08
2023-03-06T05:37:57.578Z,-2.32
2023-03-06T05:40:24.100Z,-2.06
2023-03-06T05:42:50.727Z,-2.06
2023-03-06T05:45:17.474Z,-2.43
2023-03-06T05:47:44.073Z,-2.81
2023-03-06T05:50:11.543Z,-2.75
2023-03-06T05:52:39.730Z,-2.39
2023-03-06T05:55:07.427Z,-2.35
2023-03-06T05:57:41.259Z,-2.70
2023-03-06T06:00:09.650Z,-2.62
2023-03-06T06:02:44.669Z,-2.29
2023-03-06T06:05:13.147Z,-2.20
2023-03-06T06:07:40.548Z,-2.26
2023-03-06T06:10:08.240Z,-2.00
2023-03-06T06:12:34.857Z,-1.85
2023-03-06T06:15:01.654Z,-1.85
2023-03-06T06:17:42.793Z,-1.73
2023-03-06T06:20:28.449Z,-1.88
2023-03-06T06:22:55.214Z,-2.05
2023-03-06T06:25:21.837Z,-2.02
2023-03-06T06:27:48.503Z,-2.35
2023-03-06T06:30:15.254Z,-1.98
2023-03-06T06:32:41.851Z,-1.83
2023-03-06T06:35:08.737Z,-2.13
2023-03-06T06:37:35.544Z,-1.75
2023-03-06T06:40:02.264Z,-1.58
2023-03-06T06:42:35.191Z,-1.49
2023-03-06T06:45:05.599Z,-1.42
2023-03-06T06:47:34.107Z,-1.47
2023-03-06T06:50:00.708Z,-1.61
2023-03-06T06:52:27.301Z,-1.83
2023-03-06T06:54:54.090Z,-2.50
2023-03-06T06:57:20.743Z,-1.99
2023-03-06T06:59:47.268Z,-1.60
2023-03-06T11:32:19.660Z,1.96
2023-03-06T11:34:52.151Z,1.79
2023-03-06T11:38:00.748Z,1.11
2023-03-06T11:40:36.473Z,1.67
2023-03-06T11:43:09.778Z,1.01
2023-03-06T11:45:43.914Z,0.50
2023-03-06T11:48:13.430Z,1.08
2023-03-06T11:50:49.770Z,0.48
2023-03-06T11:53:18.935Z,0.87
2023-03-06T11:56:10.264Z,0.77
2023-03-06T11:59:16.059Z,0.93
2023-03-06T12:02:05.554Z,1.43
2023-03-06T12:04:50.990Z,0.41
2023-03-06T12:07:21.586Z,1.07
2023-03-06T12:09:58.854Z,1.59
2023-03-06T12:12:37.725Z,1.80
2023-03-06T12:15:30.591Z,1.43
2023-03-06T12:17:57.038Z,1.38
2023-03-06T12:20:36.310Z,1.84
2023-03-06T12:23:28.507Z,2.14
2023-03-06T12:26:13.478Z,2.22
2023-03-06T12:29:04.503Z,1.75
2023-03-06T12:31:50.986Z,2.50
2023-03-06T12:34:52.815Z,2.51
2023-03-06T12:37:56.593Z,2.33
2023-03-06T12:40:45.051Z,2.41
2023-03-06T12:43:45.163Z,1.47
2023-03-06T12:46:16.588Z,2.07
2023-03-06T12:48:49.997Z,2.29
2023-03-06T12:51:20.328Z,2.23
2023-03-06T12:53:48.803Z,2.40
2023-03-06T12:56:20.548Z,2.29
2023-03-06T12:58:55.077Z,2.31
2023-03-06T13:01:38.512Z,2.21
2023-03-06T13:04:23.918Z,2.10
2023-03-06T13:07:12.316Z,2.04
2023-03-06T13:09:38.876Z,1.89
2023-03-06T13:12:27.598Z,2.00
2023-03-06T13:15:00.662Z,2.52
2023-03-06T13:17:34.323Z,2.45
2023-03-06T13:20:13.311Z,1.33
2023-03-06T13:22:47.150Z,2.28
2023-03-06T13:25:16.775Z,1.47
2023-03-06T13:27:53.320Z,0.53
2023-03-06T13:30:46.273Z,1.37
2023-03-06T13:33:30.012Z,1.29
2023-03-06T13:36:00.350Z,1.04
2023-03-06T13:38:37.581Z,0.66
2023-03-06T13:41:52.936Z,0.16
2023-03-06T13:44:25.556Z,-0.42
2023-03-06T13:47:06.259Z,0.12
2023-03-06T13:49:34.454Z,0.99
2023-03-06T13:52:00.953Z,1.24
2023-03-06T13:54:52.148Z,1.69
2023-03-06T13:57:49.435Z,0.91
2023-03-06T14:00:23.795Z,1.18
2023-03-06T14:03:04.320Z,2.14
2023-03-06T14:05:43.746Z,1.74
2023-03-06T14:08:17.901Z,0.82
2023-03-06T14:10:46.450Z,1.01
2023-03-06T14:13:30.042Z,1.28
2023-03-06T14:15:58.946Z,1.24
2023-03-06T14:18:41.569Z,1.02
2023-03-06T14:21:13.448Z,1.84
2023-03-06T14:23:46.386Z,1.98
2023-03-06T14:26:21.880Z,1.24
2023-03-06T14:28:59.577Z,0.93
2023-03-06T14:31:30.463Z,1.00
2023-03-06T14:33:59.619Z,0.95
2023-03-06T14:36:47.616Z,0.91
2023-03-06T14:39:21.947Z,1.28
2023-03-06T14:41:48.898Z,1.32
2023-03-06T14:44:22.593Z,1.57
2023-03-06T14:46:57.422Z,1.64
2023-03-06T14:49:25.892Z,1.75
2023-03-06T14:52:00.462Z,1.40
2023-03-06T14:54:34.445Z,1.09
2023-03-06T14:57:02.588Z,1.40
2023-03-06T14:59:34.724Z,1.37
2023-03-06T15:02:06.299Z,1.42
2023-03-06T15:04:44.835Z,1.51
2023-03-06T15:07:15.995Z,1.16
2023-03-06T15:09:51.819Z,1.33
2023-03-06T15:12:21.754Z,0.60
2023-03-06T15:14:57.149Z,1.11
2023-03-06T15:17:25.226Z,0.97
2023-03-06T15:19:55.305Z,1.05
2023-03-06T15:22:24.818Z,1.02
2023-03-06T15:24:51.508Z,1.07
2023-03-06T15:27:26.814Z,1.18
2023-03-06T15:29:53.381Z,1.20
2023-03-06T15:32:32.401Z,0.88
2023-03-06T15:35:25.156Z,1.11
2023-03-06T15:37:52.599Z,1.11
2023-03-06T15:40:20.686Z,0.87
2023-03-06T15:42:47.317Z,1.25
2023-03-06T15:45:32.148Z,0.61
2023-03-06T15:47:58.756Z,0.59
2023-03-06T15:50:28.716Z,1.16
2023-03-06T15:52:55.314Z,1.12
2023-03-06T15:55:25.784Z,0.81
2023-03-06T15:58:02.016Z,0.48
2023-03-06T16:00:34.231Z,0.36
2023-03-06T16:03:01.898Z,0.56
2023-03-06T16:05:29.024Z,0.69
2023-03-06T16:07:56.066Z,0.88
2023-03-06T16:10:27.365Z,0.81
2023-03-06T16:12:57.327Z,0.62
2023-03-06T16:15:28.884Z,0.95
2023-03-06T16:17:56.922Z,0.52
2023-03-06T16:20:26.060Z,0.62
2023-03-06T16:22:56.008Z,0.75
2023-03-06T16:25:26.184Z,0.35
2023-03-06T16:27:59.578Z,0.31
2023-03-06T16:30:29.220Z,0.31
2023-03-06T16:32:57.094Z,-0.00
2023-03-06T16:35:23.862Z,-0.25
2023-03-06T16:37:50.652Z,-0.42
2023-03-06T16:40:41.054Z,-0.37
2023-03-06T16:43:09.322Z,-0.57
2023-03-06T16:45:41.171Z,-0.73
2023-03-06T16:48:14.913Z,-0.38
2023-03-06T16:50:41.678Z,-0.91
2023-03-06T16:53:09.261Z,-0.76
2023-03-06T16:55:36.056Z,-0.84
2023-03-06T16:58:02.698Z,-0.94
2023-03-06T17:00:33.057Z,-0.74
2023-03-06T17:03:00.700Z,-0.46
2023-03-06T17:05:28.653Z,-0.65
2023-03-06T17:07:55.808Z,-0.50
2023-03-06T17:10:26.169Z,-0.52
2023-03-06T17:12:53.262Z,-1.07
2023-03-06T17:15:20.186Z,-0.64
2023-03-06T17:17:47.055Z,-0.43
2023-03-06T17:20:13.667Z,-0.76
2023-03-06T17:22:41.482Z,-0.36
2023-03-06T17:25:09.355Z,-0.51
2023-03-06T17:27:37.064Z,-0.66
2023-03-06T17:30:05.193Z,-0.55
2023-03-06T17:32:32.793Z,-0.57
2023-03-06T17:34:59.889Z,-0.30
2023-03-06T17:37:26.539Z,-0.19
2023-03-06T17:39:53.172Z,-1.08
2023-03-06T17:42:19.738Z,-0.42
2023-03-06T17:44:46.233Z,-0.65
2023-03-06T17:47:12.835Z,-0.82
2023-03-06T17:49:39.364Z,-1.09
2023-03-06T17:52:06.502Z,-1.36
2023-03-06T17:54:33.360Z,-0.79
2023-03-06T17:57:03.280Z,-1.01
2023-03-06T17:59:30.931Z,-1.19
2023-03-06T18:02:00.764Z,-1.28
2023-03-06T18:04:28.017Z,-1.00
2023-03-06T18:06:54.900Z,-1.09
2023-03-06T18:09:21.513Z,-1.17
2023-03-06T18:11:48.060Z,-1.42
2023-03-06T18:14:14.687Z,-1.07
2023-03-06T18:16:41.334Z,-1.53
2023-03-06T18:19:11.173Z,-1.12
2023-03-06T18:21:39.097Z,-1.03
2023-03-06T18:24:06.028Z,-0.99
2023-03-06T18:26:32.570Z,-1.30
2023-03-06T18:29:03.647Z,-1.27
2023-03-06T18:31:34.475Z,-1.08
2023-03-06T18:34:08.012Z,-1.09
2023-03-06T18:36:35.216Z,-1.23
2023-03-06T18:39:03.835Z,-1.08
2023-03-06T18:41:31.429Z,-1.12
2023-03-06T18:44:00.173Z,-0.91
2023-03-06T18:46:35.805Z,-1.01
2023-03-06T18:49:03.215Z,-0.86
2023-03-06T18:51:30.209Z,-1.16
2023-03-06T18:54:00.778Z,-0.65
2023-03-06T18:56:27.729Z,-1.06
2023-03-06T18:58:54.634Z,-0.90
2023-03-06T19:01:22.503Z,-0.98
2023-03-06T19:03:49.453Z,-1.26
2023-03-06T19:06:17.264Z,-1.35
2023-03-06T19:08:44.589Z,-1.73
2023-03-06T19:11:14.043Z,-1.43
2023-03-06T19:13:41.904Z,-1.29
2023-03-06T19:16:09.405Z,-1.69
2023-03-06T19:18:36.003Z,-1.69
2023-03-06T19:21:11.277Z,-1.49
2023-03-06T19:23:38.009Z,-1.62
2023-03-06T19:26:04.867Z,-1.53
2023-03-06T19:28:31.430Z,-1.97
2023-03-06T19:30:58.029Z,-2.00
2023-03-06T19:33:24.723Z,-1.68
2023-03-06T19:35:51.428Z,-1.57
2023-03-06T19:38:18.356Z,-1.45
2023-03-06T19:40:49.781Z,-1.83
2023-03-06T19:43:16.603Z,-1.51
2023-03-06T19:45:44.181Z,-1.57
2023-03-06T19:48:12.403Z,-1.58
2023-03-06T19:50:42.090Z,-2.06
2023-03-06T19:53:10.920Z,-1.53
2023-03-06T19:55:38.450Z,-1.25
2023-03-06T19:58:05.031Z,-1.18
2023-03-06T20:00:32.472Z,-1.22
2023-03-06T20:02:58.979Z,-1.62
2023-03-06T20:05:25.583Z,-1.20
2023-03-06T20:07:52.517Z,-0.99
2023-03-06T20:10:19.204Z,-1.08
2023-03-06T20:12:45.831Z,-1.11
2023-03-06T20:15:13.288Z,-0.92
2023-03-06T20:17:40.756Z,-0.96
2023-03-06T20:20:09.334Z,-1.43
2023-03-06T20:22:36.144Z,-1.07
2023-03-06T20:25:02.788Z,-1.29
2023-03-06T20:27:29.554Z,-1.67
2023-03-06T20:29:56.201Z,-1.63
2023-03-06T20:32:22.836Z,-1.38
2023-03-06T20:34:49.346Z,-1.48
2023-03-06T20:37:15.943Z,-1.74
2023-03-06T20:39:42.464Z,-1.64
2023-03-06T20:42:08.974Z,-1.37
2023-03-06T20:44:36.216Z,-1.94
2023-03-06T20:47:02.717Z,-1.83
2023-03-06T20:49:29.259Z,-2.31
2023-03-06T20:51:56.786Z,-2.03
2023-03-06T20:54:23.365Z,-2.41
2023-03-06T20:56:50.379Z,-2.67
2023-03-06T20:59:17.104Z,-2.80
2023-03-06T21:01:45.134Z,-2.62
2023-03-06T21:04:14.033Z,-2.78
2023-03-06T21:06:43.909Z,-3.09
2023-03-06T21:09:11.225Z,-3.22
2023-03-06T21:11:38.144Z,-2.94
2023-03-06T21:14:05.326Z,-3.23
2023-03-06T21:16:31.977Z,-3.19
2023-03-06T21:19:00.376Z,-3.00
2023-03-06T21:21:30.430Z,-2.83
2023-03-06T21:23:57.630Z,-3.00
2023-03-06T21:26:27.301Z,-3.29
2023-03-06T21:28:56.466Z,-3.12
2023-03-06T21:31:23.072Z,-3.44
2023-03-06T21:33:50.434Z,-3.45
2023-03-06T21:36:18.687Z,-3.02
2023-03-06T21:38:46.520Z,-2.88
2023-03-06T21:41:15.965Z,-2.99
2023-03-06T21:43:43.268Z,-3.00
2023-03-06T21:46:10.859Z,-3.29
2023-03-06T21:48:37.534Z,-3.38
2023-03-06T21:51:23.674Z,-3.08
